Time;durP1;ratioP1;P1;durP2;ratioP2;P2;SDS_P1;SDS_P2;PMS_P1;PMS_P2;Temp;Humidity;BMP_temperature;BMP_pressure;BME280_temperature;BME280_humidity;BME280_pressure;Samples;Min_cycle;Max_cycle;Signal;HPM_P1;HPM_P2
2023/06/27 00:01:04;;;;;;;13.80;10.00;;;;;;;;;;12916941;22;20519;-85
2023/06/27 00:06:06;;;;;;;16.47;10.80;;;;;;;;;;12917539;22;20410;-85
2023/06/27 00:11:09;;;;;;;14.60;10.85;;;;;;;;;;12938057;23;20764;-85
2023/06/27 00:16:13;;;;;;;18.25;11.75;;;;;;;;;;12916939;22;20422;-85
2023/06/27 00:21:16;;;;;;;15.90;11.43;;;;;;;;;;12916465;22;20434;-85
2023/06/27 00:26:18;;;;;;;15.70;11.48;;;;;;;;;;12937820;23;20696;-85
2023/06/27 00:31:22;;;;;;;18.40;11.98;;;;;;;;;;12916997;22;20364;-85
2023/06/27 00:36:25;;;;;;;17.00;12.00;;;;;;;;;;12916994;22;20364;-85
2023/06/27 00:41:27;;;;;;;14.55;10.77;;;;;;;;;;12937177;22;20407;-85
2023/06/27 00:46:36;;;;;;;13.82;11.20;;;;;;;;;;12916628;22;20365;-85
2023/06/27 00:51:40;;;;;;;14.27;10.98;;;;;;;;;;12915084;22;20426;-85
2023/06/27 00:56:43;;;;;;;16.83;11.27;;;;;;;;;;12916236;22;20360;-85
2023/06/27 01:01:47;;;;;;;14.43;11.40;;;;;;;;;;12916559;22;20438;-85
2023/06/27 01:06:59;;;;;;;15.77;11.02;;;;;;;;;;12916427;22;20369;-85
2023/06/27 01:12:09;;;;;;;16.93;12.03;;;;;;;;;;12915593;22;20364;-85
2023/06/27 01:17:14;;;;;;;14.43;11.53;;;;;;;;;;12916344;22;20475;-86
2023/06/27 01:22:19;;;;;;;15.48;11.32;;;;;;;;;;12915980;22;20717;-86
2023/06/27 01:27:23;;;;;;;15.45;11.30;;;;;;;;;;12916134;22;20816;-85
2023/06/27 01:32:32;;;;;;;15.20;11.32;;;;;;;;;;12915789;22;20365;-85
2023/06/27 01:37:39;;;;;;;14.20;11.73;;;;;;;;;;12916080;22;20426;-85
2023/06/27 01:42:47;;;;;;;13.33;10.23;;;;;;;;;;12915367;22;20387;-85
2023/06/27 01:47:50;;;;;;;15.63;10.83;;;;;;;;;;12916242;22;20369;-85
2023/06/27 01:52:53;;;;;;;14.20;10.73;;;;;;;;;;12916929;22;20391;-85
2023/06/27 01:57:57;;;;;;;14.18;10.90;;;;;;;;;;12920290;22;20816;-85
2023/06/27 02:02:59;;;;;;;13.93;10.80;;;;;;;;;;12919123;22;20930;-85
2023/06/27 02:08:01;;;;;;;12.20;10.20;;;;;;;;;;12919556;22;20438;-85
2023/06/27 02:13:05;;;;;;;14.60;9.98;;;;;;;;;;12919388;22;20365;-85
2023/06/27 02:18:07;;;;;;;12.63;9.73;;;;;;;;;;12919953;22;20422;-85
2023/06/27 02:23:10;;;;;;;13.25;9.77;;;;;;;;;;12918998;22;20384;-85
2023/06/27 02:28:13;;;;;;;12.43;9.00;;;;;;;;;;12919208;22;20368;-85
2023/06/27 02:33:16;;;;;;;10.70;8.73;;;;;;;;;;12919374;22;20474;-85
2023/06/27 02:38:18;;;;;;;11.20;8.40;;;;;;;;;;12918436;22;20934;-85
2023/06/27 02:43:22;;;;;;;10.95;8.13;;;;;;;;;;12919473;22;20419;-85
2023/06/27 02:48:25;;;;;;;10.10;8.45;;;;;;;;;;12918900;22;20450;-86
2023/06/27 02:53:27;;;;;;;10.93;7.70;;;;;;;;;;12939189;23;20436;-85
2023/06/27 02:58:31;;;;;;;10.60;8.37;;;;;;;;;;12919172;22;20426;-85
2023/06/27 03:03:33;;;;;;;11.93;8.20;;;;;;;;;;12918507;22;20387;-85
2023/06/27 03:08:37;;;;;;;11.77;8.70;;;;;;;;;;12917255;22;20427;-85
2023/06/27 03:13:41;;;;;;;10.97;8.67;;;;;;;;;;12917990;22;20419;-85
2023/06/27 03:18:43;;;;;;;12.43;8.73;;;;;;;;;;12918397;22;20368;-85
2023/06/27 03:23:46;;;;;;;12.77;9.40;;;;;;;;;;12917297;22;20385;-85
2023/06/27 03:28:49;;;;;;;12.60;8.90;;;;;;;;;;12918505;22;20398;-85
2023/06/27 03:33:54;;;;;;;12.07;8.90;;;;;;;;;;12918593;22;20364;-85
2023/06/27 03:38:57;;;;;;;9.77;8.27;;;;;;;;;;12918069;22;20368;-85
2023/06/27 03:44:01;;;;;;;11.18;8.35;;;;;;;;;;12918150;22;20968;-85
2023/06/27 03:49:03;;;;;;;10.53;8.57;;;;;;;;;;12918155;22;20361;-85
2023/06/27 03:54:06;;;;;;;11.00;8.75;;;;;;;;;;12916760;22;20418;-85
2023/06/27 03:59:10;;;;;;;16.73;9.60;;;;;;;;;;12916932;22;20364;-85
2023/06/27 04:04:13;;;;;;;13.13;9.80;;;;;;;;;;12917173;22;20387;-85
2023/06/27 04:09:15;;;;;;;12.75;9.98;;;;;;;;;;12917249;22;20361;-85
2023/06/27 04:14:19;;;;;;;16.17;10.33;;;;;;;;;;12917860;22;20740;-85
2023/06/27 04:19:21;;;;;;;12.80;10.32;;;;;;;;;;12917680;22;20414;-85
2023/06/27 04:24:24;;;;;;;14.30;11.18;;;;;;;;;;12916516;22;20417;-85
2023/06/27 04:29:27;;;;;;;14.57;10.60;;;;;;;;;;12916575;22;20427;-84
2023/06/27 04:34:30;;;;;;;14.50;10.20;;;;;;;;;;12916494;23;20369;-84
2023/06/27 04:39:32;;;;;;;15.27;10.52;;;;;;;;;;12916474;22;20376;-85
2023/06/27 04:44:36;;;;;;;15.10;10.48;;;;;;;;;;12916126;22;20748;-85
2023/06/27 04:49:38;;;;;;;15.43;10.80;;;;;;;;;;12916757;22;20368;-85
2023/06/27 04:54:40;;;;;;;18.10;11.27;;;;;;;;;;12915588;22;20426;-85
2023/06/27 04:59:44;;;;;;;15.85;10.75;;;;;;;;;;12916448;22;20840;-85
2023/06/27 05:04:46;;;;;;;15.20;10.68;;;;;;;;;;12916474;22;20387;-86
2023/06/27 05:09:49;;;;;;;15.15;11.45;;;;;;;;;;12915525;22;20430;-85
2023/06/27 05:14:52;;;;;;;15.88;11.32;;;;;;;;;;12915960;22;20434;-86
2023/06/27 05:19:55;;;;;;;16.58;11.48;;;;;;;;;;12936672;23;20423;-85
2023/06/27 05:24:57;;;;;;;19.95;11.45;;;;;;;;;;12936601;23;20380;-86
2023/06/27 05:30:01;;;;;;;16.03;10.93;;;;;;;;;;12920395;22;20360;-85
2023/06/27 05:35:04;;;;;;;17.08;11.30;;;;;;;;;;12919719;22;21009;-86
2023/06/27 05:40:08;;;;;;;15.27;11.52;;;;;;;;;;12940177;22;20360;-85
2023/06/27 05:45:12;;;;;;;19.33;12.60;;;;;;;;;;12918652;22;20384;-85
2023/06/27 05:50:14;;;;;;;17.17;12.13;;;;;;;;;;12919260;22;20430;-84
2023/06/27 05:55:17;;;;;;;15.68;11.68;;;;;;;;;;12918769;22;20364;-85
2023/06/27 06:00:21;;;;;;;15.67;11.37;;;;;;;;;;12920162;22;20836;-85
2023/06/27 06:05:23;;;;;;;15.47;12.20;;;;;;;;;;12919740;22;20914;-85
2023/06/27 06:10:25;;;;;;;16.95;11.15;;;;;;;;;;12919701;22;20368;-86
2023/06/27 06:15:29;;;;;;;15.68;11.50;;;;;;;;;;12919786;22;20365;-85
2023/06/27 06:20:31;;;;;;;15.20;11.27;;;;;;;;;;12920279;22;20426;-85
2023/06/27 06:25:34;;;;;;;14.60;10.80;;;;;;;;;;12918523;22;20388;-86
2023/06/27 06:30:38;;;;;;;15.82;10.98;;;;;;;;;;12918652;22;20360;-86
2023/06/27 06:35:40;;;;;;;13.77;10.32;;;;;;;;;;12920200;22;20422;-85
2023/06/27 06:40:44;;;;;;;15.27;10.30;;;;;;;;;;12917158;22;20423;-85
2023/06/27 06:45:47;;;;;;;16.63;9.97;;;;;;;;;;12918402;22;20380;-85
2023/06/27 06:50:51;;;;;;;16.08;9.73;;;;;;;;;;12919416;22;20361;-85
2023/06/27 06:55:53;;;;;;;14.63;9.75;;;;;;;;;;12918527;22;20372;-85
2023/06/27 07:00:57;;;;;;;12.45;9.35;;;;;;;;;;12919421;22;20368;-85
2023/06/27 07:05:59;;;;;;;13.07;9.77;;;;;;;;;;12917930;22;20435;-86
2023/06/27 07:11:02;;;;;;;13.82;9.82;;;;;;;;;;12917403;22;20898;-85
2023/06/27 07:16:07;;;;;;;15.05;9.00;;;;;;;;;;12917683;22;20899;-85
2023/06/27 07:21:09;;;;;;;12.63;9.15;;;;;;;;;;12917371;23;20832;-85
2023/06/27 07:26:11;;;;;;;13.20;8.40;;;;;;;;;;12917949;22;20446;-86
2023/06/27 07:31:15;;;;;;;14.55;8.80;;;;;;;;;;12917709;23;20426;-85
2023/06/27 07:36:17;;;;;;;12.33;8.47;;;;;;;;;;12916387;22;20426;-85
2023/06/27 07:41:20;;;;;;;12.40;9.15;;;;;;;;;;12916634;22;20832;-85
2023/06/27 07:46:24;;;;;;;13.27;9.18;;;;;;;;;;12916826;22;20454;-85
2023/06/27 07:51:26;;;;;;;10.87;8.23;;;;;;;;;;12918278;23;20430;-86
2023/06/27 07:56:29;;;;;;;9.80;7.10;;;;;;;;;;12917047;22;20744;-85
2023/06/27 08:01:33;;;;;;;10.27;7.22;;;;;;;;;;12917217;22;20395;-86
2023/06/27 08:06:35;;;;;;;10.27;6.90;;;;;;;;;;12916947;22;20921;-86
2023/06/27 08:11:37;;;;;;;9.80;5.70;;;;;;;;;;12916365;22;20430;-86
2023/06/27 08:16:41;;;;;;;10.13;5.80;;;;;;;;;;12916264;22;20387;-86
2023/06/27 08:21:43;;;;;;;9.05;6.70;;;;;;;;;;12916974;22;20368;-85
2023/06/27 08:26:49;;;;;;;10.65;6.57;;;;;;;;;;12916087;22;20380;-86
2023/06/27 08:31:58;;;;;;;7.85;5.72;;;;;;;;;;12915194;22;20368;-85
2023/06/27 08:37:00;;;;;;;10.57;6.47;;;;;;;;;;12915955;22;20368;-85
2023/06/27 08:42:03;;;;;;;9.87;6.67;;;;;;;;;;12915809;22;20368;-86
2023/06/27 08:47:09;;;;;;;7.25;5.68;;;;;;;;;;12916067;23;20872;-86
2023/06/27 08:52:14;;;;;;;8.53;5.50;;;;;;;;;;12916426;22;20368;-85
2023/06/27 08:57:17;;;;;;;9.35;6.25;;;;;;;;;;12916482;22;20364;-86
2023/06/27 09:02:21;;;;;;;7.88;5.90;;;;;;;;;;12915027;22;20364;-85
2023/06/27 09:07:25;;;;;;;6.20;5.35;;;;;;;;;;12915749;22;20442;-86
2023/06/27 09:12:29;;;;;;;6.93;5.60;;;;;;;;;;12937669;23;20372;-85
2023/06/27 09:17:33;;;;;;;8.05;5.70;;;;;;;;;;12916712;22;20364;-85
2023/06/27 09:22:37;;;;;;;6.87;4.70;;;;;;;;;;12915967;22;20364;-86
2023/06/27 09:27:40;;;;;;;6.88;5.07;;;;;;;;;;12915987;23;20438;-86
2023/06/27 09:32:57;;;;;;;7.27;5.73;;;;;;;;;;12916291;22;20451;-86
2023/06/27 09:38:06;;;;;;;6.50;5.10;;;;;;;;;;12915163;22;20922;-85
2023/06/27 09:43:11;;;;;;;6.68;5.00;;;;;;;;;;12914746;22;20406;-86
2023/06/27 09:48:18;;;;;;;6.00;4.78;;;;;;;;;;12915892;23;20384;-85
2023/06/27 09:53:20;;;;;;;5.88;4.80;;;;;;;;;;12915164;22;20744;-86
2023/06/27 09:58:27;;;;;;;6.25;4.88;;;;;;;;;;12916304;22;20592;-86
2023/06/27 10:03:31;;;;;;;7.10;4.67;;;;;;;;;;12915942;22;20368;-85
2023/06/27 10:08:33;;;;;;;7.93;4.70;;;;;;;;;;12915441;22;20387;-86
2023/06/27 10:13:37;;;;;;;5.63;4.60;;;;;;;;;;12917302;22;20361;-86
2023/06/27 10:18:41;;;;;;;6.90;5.03;;;;;;;;;;12919963;22;20360;-86
2023/06/27 10:23:47;;;;;;;7.28;5.20;;;;;;;;;;12918904;22;20395;-85
2023/06/27 10:28:50;;;;;;;7.20;4.70;;;;;;;;;;12918823;22;20849;-86
2023/06/27 10:33:54;;;;;;;6.28;4.45;;;;;;;;;;12918232;22;20364;-86
2023/06/27 10:38:56;;;;;;;6.80;4.82;;;;;;;;;;12917724;22;20361;-87
2023/06/27 10:44:09;;;;;;;5.15;4.50;;;;;;;;;;12919683;22;20725;-86
2023/06/27 10:49:13;;;;;;;7.82;6.25;;;;;;;;;;12918613;22;20415;-86
2023/06/27 10:54:18;;;;;;;8.47;6.00;;;;;;;;;;12938849;23;20439;-86
2023/06/27 10:59:23;;;;;;;6.57;5.60;;;;;;;;;;12918305;22;20368;-86
2023/06/27 11:04:39;;;;;;;6.88;5.88;;;;;;;;;;12925495;23;20380;-86
2023/06/27 11:09:52;;;;;;;6.60;5.00;;;;;;;;;;12918289;22;20356;-86
2023/06/27 11:14:55;;;;;;;6.78;5.30;;;;;;;;;;12918684;22;20360;-86
2023/06/27 11:20:00;;;;;;;7.00;5.50;;;;;;;;;;12918198;22;20820;-86
2023/06/27 11:25:12;;;;;;;6.45;5.60;;;;;;;;;;12917468;22;20930;-86
2023/06/27 11:30:17;;;;;;;5.57;4.97;;;;;;;;;;12918423;22;20364;-86
2023/06/27 11:35:22;;;;;;;5.85;4.70;;;;;;;;;;12917388;22;20352;-86
2023/06/27 11:40:25;;;;;;;6.23;4.90;;;;;;;;;;12917826;22;20369;-86
2023/06/27 11:45:28;;;;;;;6.90;4.60;;;;;;;;;;12917834;22;20442;-86
2023/06/27 11:50:31;;;;;;;6.63;4.70;;;;;;;;;;12916631;22;20438;-86
2023/06/27 11:55:42;;;;;;;6.68;4.40;;;;;;;;;;12937862;23;20365;-86
2023/06/27 12:00:44;;;;;;;7.40;4.63;;;;;;;;;;12917171;22;20364;-85
2023/06/27 12:05:48;;;;;;;5.30;4.33;;;;;;;;;;12916393;22;20422;-86
2023/06/27 12:10:52;;;;;;;6.97;4.07;;;;;;;;;;12937626;23;20685;-86
2023/06/27 12:15:54;;;;;;;7.40;4.60;;;;;;;;;;12916658;22;20360;-86
2023/06/27 12:20:59;;;;;;;7.18;4.25;;;;;;;;;;12917293;22;21029;-86
2023/06/27 12:26:02;;;;;;;5.10;4.60;;;;;;;;;;12916121;23;20381;-86
2023/06/27 12:31:04;;;;;;;7.10;4.63;;;;;;;;;;12915974;22;20394;-86
2023/06/27 12:36:08;;;;;;;5.40;4.27;;;;;;;;;;12915958;22;20368;-86
2023/06/27 12:41:10;;;;;;;5.40;4.55;;;;;;;;;;12937412;22;20376;-86
2023/06/27 12:46:13;;;;;;;9.83;4.50;;;;;;;;;;12937839;23;20860;-86
2023/06/27 12:51:17;;;;;;;8.05;4.50;;;;;;;;;;12916079;22;20368;-86
2023/06/27 12:56:19;;;;;;;5.63;4.30;;;;;;;;;;12916468;22;20360;-86
2023/06/27 13:01:23;;;;;;;8.73;4.47;;;;;;;;;;12916422;22;20430;-86
2023/06/27 13:06:27;;;;;;;5.47;4.20;;;;;;;;;;12937405;23;20402;-86
2023/06/27 13:11:29;;;;;;;5.90;4.10;;;;;;;;;;12915152;22;20395;-86
2023/06/27 13:16:34;;;;;;;5.65;4.18;;;;;;;;;;12915313;22;20520;-86
2023/06/27 13:21:38;;;;;;;4.93;4.37;;;;;;;;;;12915356;22;20403;-86
2023/06/27 13:26:40;;;;;;;4.93;4.07;;;;;;;;;;12916403;22;20384;-86
2023/06/27 13:31:43;;;;;;;6.70;4.40;;;;;;;;;;12916606;22;20395;-86
2023/06/27 13:36:46;;;;;;;6.78;4.30;;;;;;;;;;12915946;22;20890;-86
2023/06/27 13:41:49;;;;;;;5.20;4.25;;;;;;;;;;12915760;22;20372;-86
2023/06/27 13:46:51;;;;;;;6.50;4.53;;;;;;;;;;12918178;23;20388;-86
2023/06/27 13:51:55;;;;;;;6.13;4.53;;;;;;;;;;12918437;23;20517;-86
2023/06/27 13:56:58;;;;;;;5.00;4.35;;;;;;;;;;12920110;22;20360;-86
2023/06/27 14:02:00;;;;;;;6.70;4.60;;;;;;;;;;12918821;22;20418;-85
2023/06/27 14:07:05;;;;;;;5.90;4.45;;;;;;;;;;12918866;22;20384;-86
2023/06/27 14:12:08;;;;;;;5.72;4.50;;;;;;;;;;12919587;22;20430;-85
2023/06/27 14:17:10;;;;;;;6.93;4.17;;;;;;;;;;12918604;22;20732;-85
2023/06/27 14:22:14;;;;;;;4.73;4.23;;;;;;;;;;12918610;22;20365;-86
2023/06/27 14:27:16;;;;;;;7.07;4.63;;;;;;;;;;12919562;22;20636;-86
2023/06/27 14:32:19;;;;;;;6.27;4.53;;;;;;;;;;12919392;22;20360;-86
2023/06/27 14:37:23;;;;;;;8.20;4.20;;;;;;;;;;12939175;23;20368;-86
2023/06/27 14:42:25;;;;;;;6.68;4.10;;;;;;;;;;12918695;22;20368;-86
2023/06/27 14:47:27;;;;;;;5.85;4.40;;;;;;;;;;12918473;22;20458;-85
2023/06/27 14:52:31;;;;;;;12.75;3.97;;;;;;;;;;12918479;22;20364;-85
2023/06/27 14:57:34;;;;;;;8.93;4.30;;;;;;;;;;12919385;22;20372;-86
2023/06/27 15:02:36;;;;;;;7.43;4.27;;;;;;;;;;12919322;22;20673;-86
2023/06/27 15:07:40;;;;;;;6.60;4.80;;;;;;;;;;12917981;22;20454;-86
2023/06/27 15:12:42;;;;;;;9.82;4.97;;;;;;;;;;12918098;22;21079;-86
2023/06/27 15:17:45;;;;;;;6.53;5.10;;;;;;;;;;12917523;22;20365;-86
2023/06/27 15:22:48;;;;;;;8.17;4.93;;;;;;;;;;12938519;23;20464;-86
2023/06/27 15:27:51;;;;;;;6.38;5.15;;;;;;;;;;12917982;22;20388;-86
2023/06/27 15:32:53;;;;;;;7.97;4.68;;;;;;;;;;12918108;22;20427;-86
2023/06/27 15:37:57;;;;;;;6.68;4.72;;;;;;;;;;12917571;22;20902;-86
2023/06/27 15:42:59;;;;;;;8.23;5.07;;;;;;;;;;12917203;22;20368;-85
2023/06/27 15:48:02;;;;;;;11.10;5.50;;;;;;;;;;12917619;22;20450;-86
2023/06/27 15:53:05;;;;;;;7.23;5.03;;;;;;;;;;12917523;22;20376;-86
2023/06/27 15:58:09;;;;;;;6.93;4.82;;;;;;;;;;12917529;22;20380;-86
2023/06/27 16:03:12;;;;;;;6.60;5.00;;;;;;;;;;12920694;23;20437;-86
2023/06/27 16:08:15;;;;;;;6.07;4.90;;;;;;;;;;12917601;22;20384;-87
2023/06/27 16:13:18;;;;;;;8.50;5.10;;;;;;;;;;12915776;22;20837;-86
2023/06/27 16:18:21;;;;;;;6.30;5.22;;;;;;;;;;12938196;23;20360;-86
2023/06/27 16:23:25;;;;;;;6.57;5.37;;;;;;;;;;12937037;22;20740;-86
2023/06/27 16:28:27;;;;;;;7.72;5.10;;;;;;;;;;12918458;23;20716;-86
2023/06/27 16:33:30;;;;;;;6.75;5.10;;;;;;;;;;12917871;22;20372;-86
2023/06/27 16:38:34;;;;;;;10.02;5.15;;;;;;;;;;12938149;22;20818;-86
2023/06/27 16:43:36;;;;;;;6.97;5.28;;;;;;;;;;12917378;22;20364;-86
2023/06/27 16:48:38;;;;;;;7.35;5.07;;;;;;;;;;12916807;22;20388;-86
2023/06/27 16:53:42;;;;;;;6.57;5.50;;;;;;;;;;12916296;22;20364;-85
2023/06/27 16:58:44;;;;;;;8.23;5.70;;;;;;;;;;12916842;22;20478;-86
2023/06/27 17:03:46;;;;;;;6.75;5.85;;;;;;;;;;12916317;22;20516;-85
2023/06/27 17:08:50;;;;;;;10.43;5.97;;;;;;;;;;12915767;22;20438;-86
2023/06/27 17:13:53;;;;;;;7.82;6.30;;;;;;;;;;12915801;23;20364;-86
2023/06/27 17:18:55;;;;;;;7.22;5.88;;;;;;;;;;12916826;22;20402;-86
2023/06/27 17:23:59;;;;;;;8.37;6.03;;;;;;;;;;12917910;22;20372;-86
2023/06/27 17:29:01;;;;;;;9.07;6.50;;;;;;;;;;12941609;23;20926;-86
2023/06/27 17:34:03;;;;;;;7.95;6.30;;;;;;;;;;12941449;23;20433;-85
2023/06/27 17:39:07;;;;;;;7.53;5.70;;;;;;;;;;12919025;22;20365;-85
2023/06/27 17:44:09;;;;;;;6.53;5.40;;;;;;;;;;12941195;23;20748;-86
2023/06/27 17:49:12;;;;;;;10.02;6.35;;;;;;;;;;12920643;22;20391;-86
2023/06/27 17:54:16;;;;;;;8.95;6.03;;;;;;;;;;12919101;22;20356;-86
2023/06/27 17:59:18;;;;;;;7.43;5.50;;;;;;;;;;12919476;22;20453;-86
2023/06/27 18:04:20;;;;;;;9.07;5.47;;;;;;;;;;12919675;22;20405;-86
2023/06/27 18:09:24;;;;;;;7.63;5.63;;;;;;;;;;12917922;23;20449;-86
2023/06/27 18:14:28;;;;;;;7.07;5.37;;;;;;;;;;12920277;22;20364;-86
2023/06/27 18:19:30;;;;;;;7.60;5.28;;;;;;;;;;12918873;22;20365;-86
2023/06/27 18:24:34;;;;;;;7.00;5.43;;;;;;;;;;12940527;23;20951;-86
2023/06/27 18:29:36;;;;;;;7.75;5.28;;;;;;;;;;12940670;23;20458;-86
2023/06/27 18:34:39;;;;;;;8.32;5.50;;;;;;;;;;12919233;22;20364;-86
2023/06/27 18:39:42;;;;;;;8.53;5.50;;;;;;;;;;12917992;22;20360;-86
2023/06/27 18:44:46;;;;;;;8.05;6.18;;;;;;;;;;12919505;23;20365;-86
2023/06/27 18:49:48;;;;;;;7.85;5.90;;;;;;;;;;12918883;22;20385;-86
2023/06/27 18:54:52;;;;;;;7.63;5.78;;;;;;;;;;12918986;22;20402;-86
2023/06/27 18:59:54;;;;;;;7.00;5.50;;;;;;;;;;12919168;22;20406;-86
2023/06/27 19:04:57;;;;;;;9.23;5.97;;;;;;;;;;12919169;22;20384;-86
2023/06/27 19:10:02;;;;;;;7.97;6.13;;;;;;;;;;12938887;23;20434;-86
2023/06/27 19:15:06;;;;;;;8.90;6.10;;;;;;;;;;12918007;23;20681;-86
2023/06/27 19:20:09;;;;;;;9.70;5.82;;;;;;;;;;12917576;22;20869;-85
2023/06/27 19:25:13;;;;;;;8.35;6.30;;;;;;;;;;12917649;22;20431;-86
2023/06/27 19:30:15;;;;;;;8.68;6.35;;;;;;;;;;12918083;23;20756;-86
2023/06/27 19:35:18;;;;;;;8.20;5.95;;;;;;;;;;12917035;22;20402;-86
2023/06/27 19:40:22;;;;;;;8.65;6.43;;;;;;;;;;12916988;22;20376;-88
2023/06/27 19:45:24;;;;;;;8.23;6.18;;;;;;;;;;12917257;22;20832;-85
2023/06/27 19:50:26;;;;;;;8.43;6.53;;;;;;;;;;12917330;22;20708;-86
2023/06/27 19:55:30;;;;;;;8.50;6.20;;;;;;;;;;12938653;23;20372;-85
2023/06/27 20:00:33;;;;;;;8.67;6.23;;;;;;;;;;12938680;23;20372;-86
2023/06/27 20:05:38;;;;;;;9.57;6.50;;;;;;;;;;12916531;22;20414;-85
2023/06/27 20:10:42;;;;;;;7.93;6.43;;;;;;;;;;12916722;22;20701;-85
2023/06/27 20:15:45;;;;;;;8.73;6.60;;;;;;;;;;12916426;22;20368;-86
2023/06/27 20:20:47;;;;;;;7.95;7.00;;;;;;;;;;12916486;22;20434;-84
2023/06/27 20:25:51;;;;;;;9.70;6.77;;;;;;;;;;12916927;22;20364;-86
2023/06/27 20:30:54;;;;;;;11.57;7.70;;;;;;;;;;12917293;22;20444;-86
2023/06/27 20:35:56;;;;;;;7.97;6.22;;;;;;;;;;12917042;22;20368;-86
2023/06/27 20:41:00;;;;;;;7.60;6.00;;;;;;;;;;12915887;22;20426;-86
2023/06/27 20:46:03;;;;;;;6.63;5.35;;;;;;;;;;12916847;22;20471;-87
2023/06/27 20:51:05;;;;;;;6.18;4.82;;;;;;;;;;12916054;22;20458;-87
2023/06/27 20:56:09;;;;;;;5.93;4.43;;;;;;;;;;12915890;22;20398;-86
2023/06/27 21:01:11;;;;;;;4.82;3.75;;;;;;;;;;12916148;22;20410;-87
2023/06/27 21:06:16;;;;;;;4.63;3.42;;;;;;;;;;12916416;22;20478;-86
2023/06/27 21:11:20;;;;;;;5.25;3.53;;;;;;;;;;12915562;22;20461;-87
2023/06/27 21:16:23;;;;;;;5.43;4.05;;;;;;;;;;12916413;22;20394;-86
2023/06/27 21:21:25;;;;;;;5.07;3.67;;;;;;;;;;12915963;22;20361;-86
2023/06/27 21:26:29;;;;;;;4.50;4.10;;;;;;;;;;12915669;22;20403;-86
2023/06/27 21:31:31;;;;;;;5.03;3.60;;;;;;;;;;12916317;22;20415;-86
2023/06/27 21:36:34;;;;;;;5.35;3.72;;;;;;;;;;12916406;22;20662;-87
2023/06/27 21:41:38;;;;;;;5.18;3.75;;;;;;;;;;12936813;22;20434;-87
2023/06/27 21:46:40;;;;;;;6.03;3.80;;;;;;;;;;12915713;22;20357;-86
2023/06/27 21:51:42;;;;;;;5.43;4.00;;;;;;;;;;12915482;22;20384;-86
2023/06/27 21:56:46;;;;;;;5.00;3.95;;;;;;;;;;12915936;22;20373;-86
2023/06/27 22:01:48;;;;;;;5.65;3.85;;;;;;;;;;12916404;22;20368;-87
2023/06/27 22:06:51;;;;;;;6.72;3.85;;;;;;;;;;12915428;22;20364;-87
2023/06/27 22:11:54;;;;;;;5.43;3.87;;;;;;;;;;12920091;22;20446;-86
2023/06/27 22:16:57;;;;;;;5.63;3.88;;;;;;;;;;12919948;22;20368;-86
2023/06/27 22:21:59;;;;;;;6.00;4.10;;;;;;;;;;12918962;22;20434;-87
2023/06/27 22:27:03;;;;;;;5.45;3.80;;;;;;;;;;12919605;22;20372;-87
2023/06/27 22:32:06;;;;;;;4.63;3.43;;;;;;;;;;12918654;22;20418;-87
2023/06/27 22:37:09;;;;;;;5.07;3.60;;;;;;;;;;12938607;23;20372;-87
2023/06/27 22:42:13;;;;;;;3.97;3.50;;;;;;;;;;12919061;22;20426;-86
2023/06/27 22:47:15;;;;;;;4.53;3.47;;;;;;;;;;12919782;22;20365;-87
2023/06/27 22:52:17;;;;;;;3.67;3.00;;;;;;;;;;12939576;23;20446;-87
2023/06/27 22:57:21;;;;;;;3.65;2.50;;;;;;;;;;12919033;22;20493;-87
2023/06/27 23:02:24;;;;;;;2.80;2.25;;;;;;;;;;12919047;22;20356;-87
2023/06/27 23:07:26;;;;;;;2.60;2.03;;;;;;;;;;12918819;22;20431;-87
2023/06/27 23:12:30;;;;;;;2.83;1.97;;;;;;;;;;12919126;22;20384;-86
2023/06/27 23:17:33;;;;;;;2.25;2.05;;;;;;;;;;12919327;22;20365;-87
2023/06/27 23:22:36;;;;;;;2.80;2.00;;;;;;;;;;12917459;22;20356;-87
2023/06/27 23:27:40;;;;;;;2.40;1.95;;;;;;;;;;12918492;22;20361;-86
2023/06/27 23:32:49;;;;;;;2.20;1.80;;;;;;;;;;12917909;22;20384;-87
2023/06/27 23:37:54;;;;;;;2.60;2.25;;;;;;;;;;12917937;22;20833;-86
2023/06/27 23:42:58;;;;;;;3.33;2.43;;;;;;;;;;13036369;22;20930;-87
2023/06/27 23:48:00;;;;;;;2.60;2.40;;;;;;;;;;13045114;22;20824;-86
2023/06/27 23:53:03;;;;;;;3.60;2.20;;;;;;;;;;13043962;22;20426;-87
2023/06/27 23:58:06;;;;;;;2.20;2.00;;;;;;;;;;13044473;22;20836;-86
